Time;durP1;ratioP1;P1;durP2;ratioP2;P2;SDS_P1;SDS_P2;PMS_P1;PMS_P2;Temp;Humidity;BMP_temperature;BMP_pressure;BME280_temperature;BME280_humidity;BME280_pressure;Samples;Min_cycle;Max_cycle;Signal;HPM_P1;HPM_P2
2021/11/20 00:01:10;;;;;;;38.77;25.40;;;11.80;99.90;;;;;;2614315;31;20864;-72
2021/11/20 00:03:39;;;;;;;37.30;22.17;;;11.80;99.90;;;;;;2614823;54;20450;-73
2021/11/20 00:06:05;;;;;;;36.50;24.90;;;11.90;99.90;;;;;;2612125;54;20384;-73
2021/11/20 00:08:31;;;;;;;36.67;25.00;;;11.80;99.90;;;;;;2615636;39;20858;-73
2021/11/20 00:11:03;;;;;;;39.03;24.77;;;11.70;99.90;;;;;;2615608;54;20406;-72
2021/11/20 00:13:29;;;;;;;41.00;24.33;;;11.70;99.90;;;;;;2614753;54;20170;-73
2021/11/20 00:15:58;;;;;;;34.83;24.27;;;11.80;99.90;;;;;;2614959;54;20408;-72
2021/11/20 00:18:24;;;;;;;39.90;24.83;;;11.80;99.90;;;;;;2613499;54;20421;-72
2021/11/20 00:20:55;;;;;;;38.90;23.60;;;11.80;99.90;;;;;;2614252;54;20411;-72
2021/11/20 00:23:33;;;;;;;34.73;21.70;;;11.60;99.90;;;;;;2615773;54;20391;-71
2021/11/20 00:26:00;;;;;;;42.87;25.83;;;11.70;99.90;;;;;;2611809;54;20427;-72
2021/11/20 00:28:40;;;;;;;37.07;21.03;;;11.90;99.90;;;;;;2613579;54;20407;-73
2021/11/20 00:31:15;;;;;;;31.80;22.57;;;12.00;99.90;;;;;;2613511;46;20581;-72
2021/11/20 00:33:42;;;;;;;37.33;22.23;;;11.80;99.90;;;;;;2614703;47;20523;-74
2021/11/20 00:36:12;;;;;;;33.67;23.20;;;11.90;99.90;;;;;;2615223;54;20412;-72
2021/11/20 00:38:39;;;;;;;30.77;21.70;;;12.10;99.90;;;;;;2614402;46;20415;-74
2021/11/20 00:41:16;;;;;;;36.63;23.90;;;12.20;99.90;;;;;;2612079;47;20415;-73
2021/11/20 00:43:44;;;;;;;35.33;22.97;;;12.10;99.90;;;;;;2613201;50;20407;-72
2021/11/20 00:46:11;;;;;;;28.77;20.70;;;11.80;99.90;;;;;;2614557;54;21714;-72
2021/11/20 00:48:38;;;;;;;31.53;21.33;;;11.90;99.90;;;;;;2611957;54;20424;-72
2021/11/20 00:51:11;;;;;;;40.13;23.10;;;11.80;99.90;;;;;;2613274;54;20409;-72
2021/11/20 00:53:41;;;;;;;34.33;23.07;;;11.80;99.90;;;;;;2612788;54;20434;-73
2021/11/20 00:56:08;;;;;;;30.67;22.80;;;11.70;99.90;;;;;;2614857;39;20798;-73
2021/11/20 00:58:36;;;;;;;32.07;21.83;;;11.70;99.90;;;;;;2613630;54;20948;-72
2021/11/20 01:01:05;;;;;;;33.87;23.60;;;11.60;99.90;;;;;;2612791;54;20441;-72
2021/11/20 01:03:32;;;;;;;31.47;21.67;;;11.80;99.90;;;;;;2613349;54;20451;-73
2021/11/20 01:05:59;;;;;;;37.43;22.23;;;11.80;99.90;;;;;;2613538;54;20487;-73
2021/11/20 01:08:28;;;;;;;32.60;23.27;;;11.80;99.90;;;;;;2614220;54;20527;-73
2021/11/20 01:11:00;;;;;;;28.77;22.40;;;11.90;99.90;;;;;;2614185;54;20419;-73
2021/11/20 01:13:27;;;;;;;30.47;21.03;;;11.90;99.90;;;;;;2613896;47;20414;-73
2021/11/20 01:16:01;;;;;;;32.57;21.87;;;11.90;99.90;;;;;;2613589;51;20426;-72
2021/11/20 01:18:30;;;;;;;31.10;21.47;;;11.80;99.90;;;;;;2613363;54;20403;-72
2021/11/20 01:21:08;;;;;;;30.07;20.80;;;11.70;99.90;;;;;;2614180;54;20405;-72
2021/11/20 01:23:37;;;;;;;30.40;21.27;;;11.70;99.90;;;;;;2612777;54;20460;-73
2021/11/20 01:26:09;;;;;;;27.90;21.00;;;11.70;99.90;;;;;;2613978;54;21006;-72
2021/11/20 01:28:54;;;;;;;31.63;21.37;;;11.70;99.90;;;;;;2611954;46;20962;-73
2021/11/20 01:31:45;;;;;;;32.47;21.70;;;11.80;99.90;;;;;;2612164;54;20529;-72
2021/11/20 01:34:11;;;;;;;35.60;22.57;;;11.80;99.90;;;;;;2614440;54;20427;-73
2021/11/20 01:36:40;;;;;;;36.53;22.80;;;11.90;99.90;;;;;;2613049;54;20990;-73
2021/11/20 01:39:16;;;;;;;33.00;20.03;;;11.90;99.90;;;;;;2613029;54;20418;-71
2021/11/20 01:42:09;;;;;;;30.80;21.10;;;11.80;99.90;;;;;;2612174;54;20994;-72
2021/11/20 01:44:51;;;;;;;31.03;22.67;;;11.80;99.90;;;;;;2613792;54;20431;-71
2021/11/20 01:47:43;;;;;;;32.13;22.07;;;11.70;99.90;;;;;;2612178;54;20449;-72
2021/11/20 01:50:19;;;;;;;30.90;21.67;;;11.90;99.90;;;;;;2614026;54;21212;-72
2021/11/20 01:52:45;;;;;;;30.70;20.30;;;11.90;99.90;;;;;;2610383;47;20419;-72
2021/11/20 01:55:37;;;;;;;33.63;22.03;;;11.90;99.90;;;;;;2610627;54;20433;-72
2021/11/20 01:58:58;;;;;;;30.53;21.20;;;11.70;99.90;;;;;;2610382;47;20416;-73
2021/11/20 02:01:54;;;;;;;32.47;22.27;;;11.70;99.90;;;;;;2614107;54;20982;-73
2021/11/20 02:04:43;;;;;;;38.27;23.13;;;11.70;99.90;;;;;;2612986;39;20969;-73
2021/11/20 02:07:12;;;;;;;33.43;22.20;;;11.60;99.90;;;;;;2612482;54;20423;-73
2021/11/20 02:09:57;;;;;;;29.97;21.47;;;11.70;99.90;;;;;;2613026;39;20850;-73
2021/11/20 02:12:34;;;;;;;31.97;23.53;;;11.80;99.90;;;;;;2611919;47;20403;-73
2021/11/20 02:15:08;;;;;;;32.97;22.10;;;11.80;99.90;;;;;;2612634;39;20751;-74
2021/11/20 02:17:37;;;;;;;33.50;22.87;;;11.60;99.90;;;;;;2610845;54;20424;-73
2021/11/20 02:20:37;;;;;;;35.33;23.43;;;11.70;99.90;;;;;;2613186;54;20444;-74
2021/11/20 02:23:05;;;;;;;33.73;21.03;;;11.70;99.90;;;;;;2611938;54;21298;-74
2021/11/20 02:25:32;;;;;;;30.47;20.77;;;11.90;99.90;;;;;;2612932;47;20423;-74
2021/11/20 02:28:06;;;;;;;32.50;22.20;;;11.80;99.90;;;;;;2614239;39;20956;-74
2021/11/20 02:30:43;;;;;;;36.07;20.90;;;11.60;99.90;;;;;;2613666;39;20901;-73
2021/11/20 02:33:12;;;;;;;32.20;23.67;;;11.50;99.90;;;;;;2612102;39;20873;-73
2021/11/20 02:35:58;;;;;;;32.00;20.87;;;11.50;99.90;;;;;;2613674;54;20404;-75
2021/11/20 02:38:31;;;;;;;34.53;24.10;;;11.60;99.90;;;;;;2615582;46;20436;-74
2021/11/20 02:40:59;;;;;;;33.10;23.33;;;11.70;99.90;;;;;;2614818;54;20419;-74
2021/11/20 02:43:27;;;;;;;43.97;24.80;;;11.60;99.90;;;;;;2615774;54;20419;-74
2021/11/20 02:46:08;;;;;;;39.43;23.90;;;11.50;99.90;;;;;;2615545;54;20417;-74
2021/11/20 02:48:35;;;;;;;30.67;22.80;;;11.50;99.90;;;;;;2614451;54;21242;-74
2021/11/20 02:51:31;;;;;;;36.50;23.70;;;11.60;99.90;;;;;;2615589;39;21647;-75
2021/11/20 02:54:09;;;;;;;36.97;25.07;;;11.60;99.90;;;;;;2614970;47;20966;-73
2021/11/20 02:56:41;;;;;;;31.63;23.33;;;11.50;99.90;;;;;;2615954;54;20426;-75
2021/11/20 02:59:10;;;;;;;37.43;23.43;;;11.60;99.90;;;;;;2615891;54;20419;-75
2021/11/20 03:01:42;;;;;;;32.00;22.23;;;11.60;99.90;;;;;;2614856;39;20844;-74
2021/11/20 03:04:11;;;;;;;28.20;22.33;;;11.80;99.90;;;;;;2616426;54;20422;-73
2021/11/20 03:06:38;;;;;;;35.77;23.73;;;11.90;99.90;;;;;;2614804;54;20445;-74
2021/11/20 03:09:07;;;;;;;32.30;22.70;;;11.90;99.90;;;;;;2613382;47;20541;-74
2021/11/20 03:11:34;;;;;;;35.60;25.33;;;11.90;99.90;;;;;;2616750;54;20429;-74
2021/11/20 03:14:04;;;;;;;36.13;24.00;;;11.80;99.90;;;;;;2615471;54;20434;-74
2021/11/20 03:16:46;;;;;;;33.93;22.40;;;11.70;99.90;;;;;;2615299;54;20505;-74
2021/11/20 03:19:14;;;;;;;33.17;23.03;;;11.70;99.90;;;;;;2616086;54;20423;-73
2021/11/20 03:21:45;;;;;;;30.60;22.77;;;11.60;99.90;;;;;;2615190;54;20448;-76
2021/11/20 03:24:16;;;;;;;35.03;23.43;;;11.70;99.90;;;;;;2615286;47;20458;-74
2021/11/20 03:26:43;;;;;;;32.13;23.30;;;11.90;99.90;;;;;;2615276;47;20954;-74
2021/11/20 03:29:11;;;;;;;31.87;23.90;;;12.00;99.90;;;;;;2615984;54;20478;-74
2021/11/20 03:31:37;;;;;;;33.37;22.63;;;11.80;99.90;;;;;;2614893;54;20546;-74
2021/11/20 03:34:04;;;;;;;34.60;23.20;;;11.80;99.90;;;;;;2616200;47;20961;-74
2021/11/20 03:36:34;;;;;;;30.70;21.40;;;11.70;99.90;;;;;;2615678;54;20415;-74
2021/11/20 03:39:06;;;;;;;34.33;22.87;;;11.90;99.90;;;;;;2614792;54;20446;-73
2021/11/20 03:41:33;;;;;;;33.97;22.20;;;11.90;99.90;;;;;;2612261;54;20959;-74
2021/11/20 03:44:02;;;;;;;33.30;22.43;;;12.00;99.90;;;;;;2614674;54;20435;-73
2021/11/20 03:46:28;;;;;;;28.47;20.87;;;11.90;99.90;;;;;;2614664;50;20427;-75
2021/11/20 03:48:54;;;;;;;27.00;20.80;;;11.70;99.90;;;;;;2614802;47;20429;-73
2021/11/20 03:51:20;;;;;;;32.03;22.37;;;11.80;99.90;;;;;;2611160;46;20554;-73
2021/11/20 03:53:46;;;;;;;27.30;20.30;;;11.70;99.90;;;;;;2612892;54;20419;-73
2021/11/20 03:56:12;;;;;;;31.13;21.20;;;11.60;99.90;;;;;;2612919;54;20471;-74
2021/11/20 03:58:38;;;;;;;26.10;19.33;;;11.60;99.90;;;;;;2613383;54;20423;-74
2021/11/20 04:01:10;;;;;;;28.40;19.73;;;11.50;99.90;;;;;;2614017;54;20477;-74
2021/11/20 04:03:39;;;;;;;33.20;20.73;;;11.40;99.90;;;;;;2614907;47;20966;-75
2021/11/20 04:06:12;;;;;;;29.73;20.03;;;11.60;99.90;;;;;;2612834;46;21029;-75
2021/11/20 04:08:50;;;;;;;28.90;19.67;;;11.70;99.90;;;;;;2614013;54;20426;-74
2021/11/20 04:11:46;;;;;;;26.20;19.83;;;11.60;99.90;;;;;;2614593;54;20423;-74
2021/11/20 04:14:20;;;;;;;26.43;20.47;;;11.50;99.90;;;;;;2612446;54;20432;-75
2021/11/20 04:16:47;;;;;;;29.37;20.63;;;11.60;99.90;;;;;;2614536;54;21142;-74
2021/11/20 04:19:18;;;;;;;29.00;19.77;;;11.60;99.90;;;;;;2615639;39;20828;-73
2021/11/20 04:21:49;;;;;;;28.20;20.03;;;11.50;99.90;;;;;;2614960;39;20780;-74
2021/11/20 04:24:17;;;;;;;29.17;21.23;;;11.50;99.90;;;;;;2615002;54;20439;-73
2021/11/20 04:27:12;;;;;;;34.07;22.70;;;11.50;99.90;;;;;;2615041;47;20978;-74
2021/11/20 04:30:01;;;;;;;33.10;21.50;;;11.40;99.90;;;;;;2611392;46;20562;-74
2021/11/20 04:32:29;;;;;;;35.73;22.67;;;11.30;99.90;;;;;;2613628;39;20836;-74
2021/11/20 04:34:55;;;;;;;34.27;22.00;;;11.40;99.90;;;;;;2613278;54;20395;-74
2021/11/20 04:37:21;;;;;;;38.07;22.53;;;11.40;99.90;;;;;;2614220;52;20393;-74
2021/11/20 04:39:47;;;;;;;31.30;24.40;;;11.50;99.90;;;;;;2615290;54;20149;-73
2021/11/20 04:42:15;;;;;;;35.80;23.23;;;11.50;99.90;;;;;;2614063;54;20544;-74
2021/11/20 04:44:42;;;;;;;36.17;23.10;;;11.50;99.90;;;;;;2614078;54;20447;-75
2021/11/20 04:47:08;;;;;;;39.33;23.27;;;11.50;99.90;;;;;;2613908;47;20523;-73
2021/11/20 04:49:34;;;;;;;34.17;22.53;;;11.40;99.90;;;;;;2614100;54;20434;-73
2021/11/20 04:52:00;;;;;;;35.90;25.73;;;11.20;99.90;;;;;;2614192;54;20511;-74
2021/11/20 04:54:28;;;;;;;38.37;25.77;;;11.20;99.90;;;;;;2615297;54;20261;-73
2021/11/20 04:56:56;;;;;;;37.20;26.03;;;11.40;99.90;;;;;;2612907;47;20438;-74
2021/11/20 04:59:22;;;;;;;40.33;25.27;;;11.40;99.90;;;;;;2613983;39;21013;-75
2021/11/20 05:01:49;;;;;;;37.63;22.80;;;11.40;99.90;;;;;;2613722;54;20429;-73
2021/11/20 05:04:16;;;;;;;36.63;24.70;;;11.30;99.90;;;;;;2613842;47;21302;-73
2021/11/20 05:06:45;;;;;;;36.00;23.47;;;11.40;99.90;;;;;;2613381;54;20419;-74
2021/11/20 05:09:11;;;;;;;38.53;26.57;;;11.30;99.90;;;;;;2614383;54;20415;-74
2021/11/20 05:11:45;;;;;;;38.27;25.07;;;11.50;99.90;;;;;;2614379;39;21090;-74
2021/11/20 05:14:12;;;;;;;36.03;24.27;;;11.50;99.90;;;;;;2612626;47;20418;-74
2021/11/20 05:16:40;;;;;;;40.27;25.73;;;11.50;99.90;;;;;;2612955;54;20529;-74
2021/11/20 05:19:06;;;;;;;35.93;23.97;;;11.60;99.90;;;;;;2614436;54;20450;-74
2021/11/20 05:21:40;;;;;;;43.40;25.53;;;11.90;99.90;;;;;;2614503;54;20493;-74
2021/11/20 05:24:07;;;;;;;38.30;26.17;;;11.80;99.90;;;;;;2615260;39;20841;-74
2021/11/20 05:26:33;;;;;;;37.80;25.07;;;11.70;99.90;;;;;;2615278;54;20430;-74
2021/11/20 05:31:30;;;;;;;39.53;25.50;;;11.60;99.90;;;;;;2613720;54;20459;-73
2021/11/20 05:33:56;;;;;;;41.27;24.17;;;11.70;99.90;;;;;;2614511;47;20547;-73
2021/11/20 05:36:26;;;;;;;38.53;25.53;;;11.60;99.90;;;;;;2612581;54;20435;-75
2021/11/20 05:38:53;;;;;;;46.00;24.87;;;11.60;99.90;;;;;;2611705;54;20435;-74
2021/11/20 05:41:19;;;;;;;38.57;24.47;;;11.70;99.90;;;;;;2614519;51;20423;-73
2021/11/20 05:43:48;;;;;;;38.60;27.07;;;11.80;99.90;;;;;;2611242;54;20439;-72
2021/11/20 05:46:37;;;;;;;39.10;23.90;;;11.90;99.90;;;;;;2613196;54;20412;-73
2021/11/20 05:49:05;;;;;;;40.80;25.33;;;11.50;99.90;;;;;;2613865;47;20446;-74
2021/11/20 05:51:31;;;;;;;34.30;24.20;;;11.40;99.90;;;;;;2612243;54;20403;-74
2021/11/20 05:53:57;;;;;;;42.17;24.23;;;11.40;99.90;;;;;;2613557;54;20438;-73
2021/11/20 05:56:23;;;;;;;40.10;24.67;;;11.60;99.90;;;;;;2613186;47;20408;-72
2021/11/20 05:58:49;;;;;;;41.40;25.73;;;11.60;99.90;;;;;;2611926;54;20564;-73
2021/11/20 06:01:18;;;;;;;41.67;24.50;;;11.50;99.90;;;;;;2612515;54;20429;-73
2021/11/20 06:03:47;;;;;;;41.03;25.43;;;11.50;99.90;;;;;;2614394;54;20403;-74
2021/11/20 06:06:13;;;;;;;40.20;25.13;;;11.30;99.90;;;;;;2613054;54;20446;-73
2021/11/20 06:08:40;;;;;;;38.33;25.20;;;11.20;99.90;;;;;;2613617;54;20525;-73
2021/11/20 06:11:09;;;;;;;48.30;25.63;;;11.30;99.90;;;;;;2613683;47;20461;-73
2021/11/20 06:13:37;;;;;;;44.63;24.57;;;11.30;99.90;;;;;;2612928;54;20976;-73
2021/11/20 06:16:10;;;;;;;33.27;23.80;;;11.20;99.90;;;;;;2612689;54;20485;-74
2021/11/20 06:18:38;;;;;;;34.83;23.63;;;11.10;99.90;;;;;;2614469;47;20430;-73
2021/11/20 06:21:04;;;;;;;39.60;25.40;;;11.10;99.90;;;;;;2613590;54;20457;-74
2021/11/20 06:23:32;;;;;;;42.50;26.20;;;11.10;99.90;;;;;;2614012;54;20165;-73
2021/11/20 06:26:05;;;;;;;36.37;23.80;;;11.10;99.90;;;;;;2614029;54;20979;-73
2021/11/20 06:28:32;;;;;;;39.13;23.53;;;11.30;99.90;;;;;;2612530;54;20975;-73
2021/11/20 06:30:59;;;;;;;38.63;24.27;;;11.30;99.90;;;;;;2611362;54;20451;-74
2021/11/20 06:33:27;;;;;;;40.63;24.43;;;11.40;99.90;;;;;;2613755;54;20524;-74
2021/11/20 06:36:00;;;;;;;42.37;24.63;;;11.50;99.90;;;;;;2611969;54;20422;-74
2021/11/20 06:38:36;;;;;;;39.93;25.20;;;11.50;99.90;;;;;;2613320;54;20967;-74
2021/11/20 06:41:04;;;;;;;42.57;23.60;;;11.40;99.90;;;;;;2613857;47;20424;-73
2021/11/20 06:43:31;;;;;;;39.93;24.00;;;11.40;99.90;;;;;;2613092;54;20454;-74
2021/11/20 06:46:00;;;;;;;35.20;23.30;;;11.40;99.90;;;;;;2613815;54;20494;-74
2021/11/20 06:48:27;;;;;;;34.57;22.37;;;11.40;99.90;;;;;;2613574;54;20462;-72
2021/11/20 06:51:12;;;;;;;36.33;23.30;;;11.30;99.90;;;;;;2615337;54;20973;-72
2021/11/20 06:53:41;;;;;;;41.93;25.23;;;11.40;99.90;;;;;;2613809;54;20456;-74
2021/11/20 06:56:14;;;;;;;40.70;25.10;;;11.50;99.90;;;;;;2615085;54;21002;-72
2021/11/20 06:59:09;;;;;;;35.63;22.17;;;11.60;99.90;;;;;;2612346;47;20416;-73
2021/11/20 07:01:37;;;;;;;37.50;23.57;;;11.70;99.90;;;;;;2612542;54;20517;-74
2021/11/20 07:04:07;;;;;;;32.33;21.83;;;11.70;99.90;;;;;;2613576;54;20415;-73
2021/11/20 07:06:49;;;;;;;38.53;25.00;;;12.00;99.90;;;;;;2614089;54;20420;-74
2021/11/20 07:09:15;;;;;;;33.20;21.93;;;12.20;99.90;;;;;;2613119;54;20427;-74
2021/11/20 07:11:42;;;;;;;36.67;22.63;;;12.50;99.90;;;;;;2611837;54;20508;-74
2021/11/20 07:14:08;;;;;;;38.40;24.97;;;12.50;99.90;;;;;;2613812;39;20898;-74
2021/11/20 07:16:35;;;;;;;33.17;21.40;;;12.40;99.90;;;;;;2613486;54;20446;-72
2021/11/20 07:19:02;;;;;;;33.47;23.30;;;12.60;99.90;;;;;;2612221;47;20441;-73
2021/11/20 07:21:49;;;;;;;39.10;24.00;;;12.90;99.90;;;;;;2614193;47;20555;-74
2021/11/20 07:24:40;;;;;;;36.97;23.60;;;12.70;99.90;;;;;;2613140;54;20479;-73
2021/11/20 07:27:08;;;;;;;42.20;24.37;;;12.30;99.90;;;;;;2611716;46;20450;-72
2021/11/20 07:29:34;;;;;;;44.47;26.57;;;12.20;99.90;;;;;;2613402;54;20454;-73
2021/11/20 07:32:07;;;;;;;36.40;23.97;;;12.10;99.90;;;;;;2614020;54;20422;-75
2021/11/20 07:34:35;;;;;;;34.77;23.50;;;12.00;99.90;;;;;;2614868;54;20422;-73
2021/11/20 07:37:01;;;;;;;36.30;23.87;;;12.00;99.90;;;;;;2615303;54;20516;-74
2021/11/20 07:39:29;;;;;;;39.00;22.87;;;12.20;99.90;;;;;;2614180;54;21230;-73
2021/11/20 07:41:55;;;;;;;39.20;23.27;;;12.10;99.90;;;;;;2612902;54;20400;-74
2021/11/20 07:44:23;;;;;;;36.20;23.20;;;11.80;99.90;;;;;;2613649;54;21023;-73
2021/11/20 07:46:52;;;;;;;35.47;24.40;;;11.70;99.90;;;;;;2614207;54;20983;-73
2021/11/20 07:49:18;;;;;;;49.10;25.90;;;11.80;99.90;;;;;;2611429;47;20423;-73
2021/11/20 07:51:45;;;;;;;33.90;23.67;;;11.70;99.90;;;;;;2611648;54;20419;-75
2021/11/20 07:54:12;;;;;;;36.80;24.17;;;11.80;99.90;;;;;;2610981;54;20449;-74
2021/11/20 07:57:05;;;;;;;37.57;25.13;;;11.80;99.90;;;;;;2612012;54;20976;-73
2021/11/20 07:59:31;;;;;;;34.90;21.60;;;11.90;99.90;;;;;;2611284;54;21085;-75
2021/11/20 08:02:15;;;;;;;38.87;23.83;;;11.60;99.90;;;;;;2608555;47;20907;-73
2021/11/20 08:04:45;;;;;;;36.80;23.10;;;11.70;99.90;;;;;;2611765;54;20450;-75
2021/11/20 08:07:26;;;;;;;40.97;26.00;;;11.80;99.90;;;;;;2608405;39;20501;-74
2021/11/20 08:10:18;;;;;;;32.77;22.57;;;12.00;99.90;;;;;;2608487;54;20458;-74
2021/11/20 08:12:45;;;;;;;40.73;23.07;;;11.80;99.90;;;;;;2611412;54;20426;-74
2021/11/20 08:15:37;;;;;;;40.43;21.73;;;11.70;99.90;;;;;;2612375;54;20378;-74
2021/11/20 08:18:20;;;;;;;38.67;24.23;;;11.50;99.90;;;;;;2608169;54;20407;-75
2021/11/20 08:21:07;;;;;;;37.17;23.60;;;11.30;99.90;;;;;;2610563;54;20964;-73
2021/11/20 08:23:45;;;;;;;42.37;24.90;;;11.30;99.90;;;;;;2608082;54;20411;-76
2021/11/20 08:26:11;;;;;;;39.43;24.30;;;11.30;99.90;;;;;;2608221;54;20418;-73
2021/11/20 08:28:37;;;;;;;39.33;24.40;;;11.60;99.90;;;;;;2612532;54;21049;-73
2021/11/20 08:31:05;;;;;;;34.80;23.73;;;11.40;99.90;;;;;;2613097;54;20435;-74
2021/11/20 08:33:31;;;;;;;37.00;23.63;;;11.40;99.90;;;;;;2613779;54;20511;-73
2021/11/20 08:36:27;;;;;;;42.43;24.13;;;11.40;99.90;;;;;;2611495;54;20411;-74
2021/11/20 08:39:07;;;;;;;40.33;24.63;;;11.40;99.90;;;;;;2613552;54;20432;-73
2021/11/20 08:41:35;;;;;;;34.53;23.97;;;11.50;99.90;;;;;;2611988;54;20434;-75
2021/11/20 08:44:01;;;;;;;36.50;25.30;;;11.40;99.90;;;;;;2610559;47;20433;-74
2021/11/20 08:46:36;;;;;;;38.37;22.93;;;11.50;99.90;;;;;;2610774;54;20482;-74
2021/11/20 08:49:03;;;;;;;39.27;25.77;;;11.40;99.90;;;;;;2613447;47;20395;-73
2021/11/20 08:51:30;;;;;;;33.97;21.67;;;11.40;99.90;;;;;;2614730;54;20962;-73
2021/11/20 08:54:00;;;;;;;38.70;22.30;;;11.30;99.90;;;;;;2615047;47;20412;-74
2021/11/20 08:56:27;;;;;;;39.83;22.40;;;11.30;99.90;;;;;;2614453;54;21050;-74
2021/11/20 08:59:05;;;;;;;36.27;22.80;;;11.30;99.90;;;;;;2615092;54;20422;-73
2021/11/20 09:02:23;;;;;;;41.13;24.13;;;11.40;99.90;;;;;;2612611;54;20531;-73
2021/11/20 09:05:25;;;;;;;43.33;24.90;;;11.40;99.90;;;;;;2612634;47;20537;-73
2021/11/20 09:08:08;;;;;;;45.30;24.87;;;11.40;99.90;;;;;;2613404;54;20534;-74
2021/11/20 09:10:43;;;;;;;39.07;24.17;;;11.50;99.90;;;;;;2610852;54;20543;-74
2021/11/20 09:13:21;;;;;;;38.37;24.87;;;11.40;99.90;;;;;;2613831;54;20534;-73
2021/11/20 09:15:55;;;;;;;37.60;23.80;;;11.40;99.90;;;;;;2613803;54;21059;-74
2021/11/20 09:18:30;;;;;;;43.97;25.30;;;11.40;99.90;;;;;;2612801;47;20407;-74
2021/11/20 09:20:56;;;;;;;39.10;25.50;;;11.40;99.90;;;;;;2614481;54;20396;-74
2021/11/20 09:23:55;;;;;;;38.23;24.13;;;11.50;99.90;;;;;;2613977;54;20415;-73
2021/11/20 09:26:41;;;;;;;33.13;23.00;;;11.40;99.90;;;;;;2611372;54;20988;-74
2021/11/20 09:29:11;;;;;;;38.97;24.20;;;11.40;99.90;;;;;;2612501;39;20810;-74
2021/11/20 09:31:41;;;;;;;39.40;26.77;;;11.30;99.90;;;;;;2613896;54;21111;-73
2021/11/20 09:34:09;;;;;;;37.17;24.80;;;11.40;99.90;;;;;;2613163;39;20886;-73
2021/11/20 09:36:35;;;;;;;46.97;25.70;;;11.40;99.90;;;;;;2613465;51;20916;-74
2021/11/20 09:39:24;;;;;;;42.17;26.57;;;11.40;99.90;;;;;;2613944;51;20492;-74
2021/11/20 09:42:20;;;;;;;41.97;23.70;;;11.60;99.90;;;;;;2613633;54;20980;-74
2021/11/20 09:44:49;;;;;;;38.67;24.23;;;11.50;99.90;;;;;;2611175;39;20867;-73
2021/11/20 09:47:30;;;;;;;36.80;25.63;;;11.50;99.90;;;;;;2612272;54;21129;-74
2021/11/20 09:50:26;;;;;;;36.57;22.80;;;11.60;99.90;;;;;;2614659;39;20986;-73
2021/11/20 09:52:53;;;;;;;35.20;23.50;;;11.70;99.90;;;;;;2613513;39;20979;-73
2021/11/20 09:55:24;;;;;;;32.13;20.10;;;11.80;99.90;;;;;;2613777;54;20416;-73
2021/11/20 09:57:55;;;;;;;40.83;25.10;;;11.80;99.90;;;;;;2614107;31;20973;-73
2021/11/20 10:00:55;;;;;;;38.70;22.07;;;12.10;99.90;;;;;;2615043;54;20428;-74
2021/11/20 10:03:27;;;;;;;39.30;25.10;;;11.90;99.90;;;;;;2612206;54;20428;-73
2021/11/20 10:06:27;;;;;;;34.13;21.60;;;11.80;99.90;;;;;;2614636;54;20450;-73
2021/11/20 10:09:13;;;;;;;32.33;20.60;;;12.00;99.90;;;;;;2614326;54;20950;-73
2021/11/20 10:11:58;;;;;;;36.00;22.73;;;11.80;99.90;;;;;;2615029;39;21147;-73
2021/11/20 10:14:37;;;;;;;30.50;20.70;;;11.70;99.90;;;;;;2614379;39;20844;-74
2021/11/20 10:17:27;;;;;;;32.13;20.93;;;11.60;99.90;;;;;;2611566;54;20415;-74
2021/11/20 10:20:12;;;;;;;31.73;19.90;;;11.60;99.90;;;;;;2613784;54;21043;-73
2021/11/20 10:22:50;;;;;;;32.90;22.70;;;11.60;99.90;;;;;;2614330;54;20400;-73
2021/11/20 10:25:45;;;;;;;29.87;20.90;;;11.70;99.90;;;;;;2614380;51;20450;-74
2021/11/20 10:28:27;;;;;;;34.23;22.80;;;11.70;99.90;;;;;;2613870;54;20413;-73
2021/11/20 10:31:07;;;;;;;27.40;17.90;;;11.70;99.90;;;;;;2615079;54;20482;-74
2021/11/20 10:33:56;;;;;;;27.60;18.33;;;11.70;99.90;;;;;;2612888;54;20419;-75
2021/11/20 10:36:34;;;;;;;25.60;18.07;;;11.60;99.90;;;;;;2615169;54;20458;-73
2021/11/20 10:39:02;;;;;;;22.97;16.30;;;11.50;99.90;;;;;;2612103;39;20928;-74
2021/11/20 10:42:00;;;;;;;32.20;19.67;;;11.50;99.90;;;;;;2611569;54;20427;-74
2021/11/20 10:44:41;;;;;;;31.20;19.47;;;11.60;99.90;;;;;;2613249;54;20928;-73
2021/11/20 10:47:14;;;;;;;27.80;18.23;;;11.60;99.90;;;;;;2611078;54;20416;-73
2021/11/20 10:50:07;;;;;;;30.57;19.90;;;11.50;99.90;;;;;;2612656;39;20827;-73
2021/11/20 10:52:33;;;;;;;26.83;17.70;;;11.60;99.90;;;;;;2613525;54;20449;-74
2021/11/20 10:55:21;;;;;;;26.13;18.70;;;11.80;99.90;;;;;;2611048;47;20415;-74
2021/11/20 10:58:28;;;;;;;22.73;16.40;;;11.80;99.90;;;;;;2611710;47;20175;-73
2021/11/20 11:01:13;;;;;;;23.13;16.00;;;11.70;99.90;;;;;;2611684;54;20415;-73
2021/11/20 11:03:43;;;;;;;25.20;16.70;;;11.60;99.90;;;;;;2610443;47;20797;-74
2021/11/20 11:06:29;;;;;;;21.70;15.60;;;11.70;99.90;;;;;;2614031;54;20430;-74
2021/11/20 11:09:21;;;;;;;17.70;13.73;;;11.80;99.90;;;;;;2613368;54;20494;-74
2021/11/20 11:11:47;;;;;;;15.80;12.17;;;11.60;99.90;;;;;;2611920;46;20449;-74
2021/11/20 11:14:29;;;;;;;20.17;13.47;;;11.50;99.90;;;;;;2615238;54;20407;-73
2021/11/20 11:17:03;;;;;;;22.80;16.07;;;11.50;99.90;;;;;;2615948;54;20158;-74
2021/11/20 11:19:40;;;;;;;24.83;17.57;;;11.50;99.90;;;;;;2615086;54;20391;-75
2021/11/20 11:22:19;;;;;;;23.63;17.20;;;11.70;99.90;;;;;;2614842;47;20408;-74
2021/11/20 11:25:10;;;;;;;21.90;14.30;;;11.80;99.90;;;;;;2616208;39;20857;-73
2021/11/20 11:27:57;;;;;;;20.00;15.57;;;11.80;99.90;;;;;;2613625;54;20646;-73
2021/11/20 11:30:30;;;;;;;24.80;16.87;;;11.80;99.90;;;;;;2614670;54;20418;-74
2021/11/20 11:32:59;;;;;;;22.73;17.23;;;11.70;99.90;;;;;;2613742;54;20390;-73
2021/11/20 11:35:45;;;;;;;19.57;13.47;;;11.90;99.90;;;;;;2614455;54;20415;-74
2021/11/20 11:38:39;;;;;;;29.20;18.43;;;11.70;99.90;;;;;;2614833;47;20963;-73
2021/11/20 11:41:52;;;;;;;22.60;16.73;;;11.60;99.90;;;;;;2614828;54;20487;-73
2021/11/20 11:44:48;;;;;;;25.70;15.50;;;11.50;99.90;;;;;;2608223;54;20795;-74
2021/11/20 11:47:49;;;;;;;25.40;17.53;;;11.60;99.90;;;;;;2611036;54;20411;-74
2021/11/20 11:50:42;;;;;;;22.13;15.43;;;11.50;99.90;;;;;;2611665;39;20857;-73
2021/11/20 11:53:29;;;;;;;25.57;16.13;;;11.50;99.90;;;;;;2611488;54;20604;-74
2021/11/20 11:56:14;;;;;;;26.97;17.70;;;11.50;99.90;;;;;;2611283;54;20422;-73
2021/11/20 11:58:56;;;;;;;19.30;13.60;;;11.30;99.90;;;;;;2610837;54;20436;-73
2021/11/20 12:01:43;;;;;;;28.33;17.77;;;11.30;99.90;;;;;;2611827;54;20506;-74
2021/11/20 12:04:29;;;;;;;23.70;16.80;;;11.50;99.90;;;;;;2609650;54;20511;-75
2021/11/20 12:07:27;;;;;;;23.07;13.37;;;11.50;99.90;;;;;;2608751;54;20556;-74
2021/11/20 12:10:06;;;;;;;21.80;13.90;;;11.40;99.90;;;;;;2608861;54;20416;-74
2021/11/20 12:12:39;;;;;;;21.00;13.57;;;11.40;99.90;;;;;;2608899;54;20419;-73
2021/11/20 12:15:17;;;;;;;20.43;14.97;;;11.40;99.90;;;;;;2609983;54;20523;-74
2021/11/20 12:17:57;;;;;;;22.90;16.80;;;11.50;99.90;;;;;;2612217;54;20510;-73
2021/11/20 12:20:26;;;;;;;21.80;16.00;;;11.40;99.90;;;;;;2612551;54;21304;-73
2021/11/20 12:23:13;;;;;;;21.60;14.27;;;11.40;99.90;;;;;;2612313;54;20420;-74
2021/11/20 12:25:49;;;;;;;21.90;15.60;;;11.40;99.90;;;;;;2610326;54;20416;-73
2021/11/20 12:28:29;;;;;;;24.53;16.20;;;11.50;99.90;;;;;;2609416;46;20419;-73
2021/11/20 12:30:55;;;;;;;23.80;17.23;;;11.50;99.90;;;;;;2609310;54;20545;-74
2021/11/20 12:33:30;;;;;;;24.03;16.27;;;11.50;99.90;;;;;;2609027;54;20416;-74
2021/11/20 12:36:24;;;;;;;22.00;16.87;;;11.50;99.90;;;;;;2609604;39;20741;-74
2021/11/20 12:39:28;;;;;;;21.33;15.13;;;11.50;99.90;;;;;;2609450;54;20937;-75
2021/11/20 12:42:22;;;;;;;22.37;15.03;;;11.60;99.90;;;;;;2608275;54;21068;-75
2021/11/20 12:45:15;;;;;;;19.33;14.33;;;11.40;99.90;;;;;;2609419;54;20538;-73
2021/11/20 12:48:09;;;;;;;21.93;15.43;;;11.40;99.90;;;;;;2611727;54;22228;-74
2021/11/20 12:51:02;;;;;;;17.63;13.80;;;11.40;99.90;;;;;;2612255;54;21081;-75
2021/11/20 12:53:30;;;;;;;19.13;15.00;;;11.40;99.90;;;;;;2612226;54;20543;-76
2021/11/20 12:56:23;;;;;;;19.37;14.30;;;11.40;99.90;;;;;;2610169;39;20482;-75
2021/11/20 12:58:57;;;;;;;17.50;12.17;;;11.50;99.90;;;;;;2609342;54;20418;-75
2021/11/20 13:01:36;;;;;;;20.80;13.27;;;11.50;99.90;;;;;;2610777;54;20430;-74
2021/11/20 13:04:13;;;;;;;17.70;12.30;;;11.40;99.90;;;;;;2606412;54;20411;-75
2021/11/20 13:07:00;;;;;;;20.47;13.50;;;11.40;99.90;;;;;;2606449;54;20441;-74
2021/11/20 13:09:34;;;;;;;19.87;14.10;;;11.50;99.90;;;;;;2605681;39;20910;-74
2021/11/20 13:12:26;;;;;;;20.43;14.20;;;11.60;99.90;;;;;;2607219;39;20781;-76